Airport Name : Presidente Juscelino Kubitschek

Other Name : Brasilia

ICAO : SBBR

IATA : BSB

FAA :

Latitude : -15.8711

Longitude : -47.918625

Country : Brazil

Local Date and Time : 5/25/2018 7:53:00 AM

 

TAF (Terminal Aerodrome Forecast)

TAF SBBR 251000Z 2512/2612 10008KT 9999 SCT018 TX26/2518Z TN14/2608Z PROB40 2512/2514 BKN010 BECMG 2514/2515 SCT035 PROB40 2515/2519 SCT035 FEW045TCU BECMG 2521/2523 00000KT CAVOK RMK PEJ

 

METAR (METeorological Aerodrome Report)

SBBR 251000Z 09008KT 9999 BKN009 16/15 Q1023

SBBR 250900Z 10007KT 9999 BKN009 16/15 Q1023

SBBR 250800Z 07011KT 9999 BKN009 17/15 Q1022

SBBR 250700Z 07011KT 9999 BKN009 17/15 Q1022